createdAt,value
2018-04-22T00:01:13.958Z,15.10
2018-04-22T00:03:42.304Z,15.00
2018-04-22T00:06:11.283Z,15.10
2018-04-22T00:08:39.677Z,15.00
2018-04-22T00:11:07.895Z,15.00
2018-04-22T00:13:36.288Z,14.90
2018-04-22T00:16:04.569Z,14.80
2018-04-22T00:18:32.800Z,14.70
2018-04-22T00:21:01.020Z,14.50
2018-04-22T00:23:29.259Z,14.40
2018-04-22T00:25:57.580Z,14.30
2018-04-22T00:28:26.024Z,14.30
2018-04-22T00:30:54.418Z,14.30
2018-04-22T00:33:22.613Z,14.20
2018-04-22T00:35:50.853Z,14.20
2018-04-22T00:38:19.249Z,14.20
2018-04-22T00:40:47.512Z,14.20
2018-04-22T00:43:15.867Z,14.20
2018-04-22T00:45:44.200Z,14.20
2018-04-22T00:48:12.503Z,14.20
2018-04-22T00:50:40.765Z,14.10
2018-04-22T00:53:09.101Z,14.10
2018-04-22T00:55:37.355Z,13.90
2018-04-22T00:58:06.241Z,13.90
2018-04-22T01:00:34.954Z,13.80
2018-04-22T01:03:03.269Z,13.80
2018-04-22T01:05:31.536Z,13.70
2018-04-22T01:07:59.820Z,13.70
2018-04-22T01:10:28.040Z,13.70
2018-04-22T01:12:56.275Z,13.60
2018-04-22T01:15:24.507Z,13.50
2018-04-22T01:17:52.793Z,13.50
2018-04-22T01:20:21.006Z,13.50
2018-04-22T01:22:49.669Z,13.50
2018-04-22T01:25:18.166Z,13.50
2018-04-22T01:27:46.507Z,13.60
2018-04-22T01:30:15.759Z,13.60
2018-04-22T01:32:44.396Z,13.60
2018-04-22T01:35:12.648Z,13.60
2018-04-22T01:37:41.755Z,13.60
2018-04-22T01:40:10.006Z,13.50
2018-04-22T01:42:38.224Z,13.60
2018-04-22T01:45:06.550Z,13.60
2018-04-22T01:47:35.668Z,13.60
2018-04-22T01:50:03.866Z,13.50
2018-04-22T01:52:32.115Z,13.40
2018-04-22T01:55:01.131Z,13.40
2018-04-22T01:57:29.512Z,13.30
2018-04-22T02:00:00.257Z,13.30
2018-04-22T02:02:28.643Z,13.30
2018-04-22T02:04:56.980Z,13.40
2018-04-22T02:07:25.304Z,13.30
2018-04-22T02:09:53.540Z,13.30
2018-04-22T02:12:21.803Z,13.30
2018-04-22T02:14:50.103Z,13.20
2018-04-22T02:17:19.068Z,13.10
2018-04-22T02:19:47.375Z,13.00
2018-04-22T02:22:15.592Z,13.10
2018-04-22T02:24:43.913Z,13.20
2018-04-22T02:27:12.348Z,13.10
2018-04-22T02:29:40.652Z,13.10
2018-04-22T02:32:08.981Z,13.10
2018-04-22T02:34:37.205Z,13.10
2018-04-22T02:37:06.260Z,13.00
2018-04-22T02:39:34.532Z,13.00
2018-04-22T02:42:02.769Z,12.90
2018-04-22T02:44:31.896Z,12.70
2018-04-22T02:47:00.152Z,12.70
2018-04-22T02:49:28.480Z,12.70
2018-04-22T02:51:56.783Z,12.60
2018-04-22T02:54:25.797Z,12.60
2018-04-22T02:56:54.875Z,12.60
2018-04-22T02:59:23.076Z,12.60
2018-04-22T03:01:53.869Z,12.60
2018-04-22T03:04:22.094Z,12.50
2018-04-22T03:06:50.321Z,12.60
2018-04-22T03:09:18.623Z,12.50
2018-04-22T03:11:47.798Z,12.20
2018-04-22T03:14:16.215Z,12.20
2018-04-22T03:16:44.647Z,12.20
2018-04-22T03:19:12.871Z,12.20
2018-04-22T03:21:41.204Z,12.20
2018-04-22T03:24:09.416Z,12.10
2018-04-22T03:26:37.692Z,12.10
2018-04-22T03:29:06.858Z,12.10
2018-04-22T03:31:35.207Z,12.10
2018-04-22T03:34:05.837Z,12.00
2018-04-22T03:36:34.137Z,12.20
2018-04-22T03:39:03.099Z,12.30
2018-04-22T03:41:31.376Z,12.20
2018-04-22T03:43:59.749Z,12.20
2018-04-22T03:46:28.101Z,12.20
2018-04-22T03:48:57.203Z,12.20
2018-04-22T03:51:25.433Z,12.20
2018-04-22T03:53:53.743Z,12.30
2018-04-22T03:56:21.968Z,12.30
2018-04-22T03:58:50.261Z,12.00
2018-04-22T04:01:18.716Z,11.90
2018-04-22T04:03:46.960Z,12.00
2018-04-22T04:06:15.250Z,12.00
2018-04-22T04:08:43.623Z,12.10
2018-04-22T04:11:11.845Z,12.10
2018-04-22T04:13:40.080Z,12.10
2018-04-22T04:16:08.295Z,12.10
2018-04-22T04:19:11.097Z,12.00
2018-04-22T04:21:51.040Z,12.00
2018-04-22T04:24:40.167Z,12.00
2018-04-22T04:27:31.047Z,12.10
2018-04-22T04:30:00.049Z,12.10
2018-04-22T04:32:29.087Z,12.00
2018-04-22T04:34:57.377Z,12.10
2018-04-22T04:37:25.640Z,12.00
2018-04-22T04:39:54.340Z,11.90
2018-04-22T04:42:22.554Z,11.80
2018-04-22T04:44:50.899Z,11.90
2018-04-22T04:47:19.187Z,11.80
2018-04-22T04:49:47.548Z,11.80
2018-04-22T04:52:15.772Z,11.80
2018-04-22T04:54:44.056Z,11.90
2018-04-22T04:57:13.081Z,11.80
2018-04-22T04:59:41.384Z,11.70
2018-04-22T05:02:09.644Z,11.70
2018-04-22T05:04:37.851Z,11.60
2018-04-22T05:07:06.155Z,11.50
2018-04-22T05:09:34.595Z,11.80
2018-04-22T05:12:02.937Z,11.90
2018-04-22T05:14:31.232Z,12.00
2018-04-22T05:16:59.700Z,11.80
2018-04-22T05:19:27.904Z,11.70
2018-04-22T05:21:56.177Z,11.70
2018-04-22T05:24:24.441Z,11.70
2018-04-22T05:26:52.622Z,11.90
2018-04-22T05:29:20.939Z,12.10
2018-04-22T05:31:49.151Z,12.30
2018-04-22T05:34:17.407Z,12.40
2018-04-22T05:36:45.703Z,12.70
2018-04-22T05:39:13.972Z,13.00
2018-04-22T05:41:42.240Z,13.10
2018-04-22T05:44:11.475Z,13.20
2018-04-22T05:46:39.643Z,13.20
2018-04-22T05:49:07.928Z,13.10
2018-04-22T05:51:36.173Z,13.20
2018-04-22T05:54:04.512Z,13.50
2018-04-22T05:56:32.743Z,13.70
2018-04-22T05:59:01.184Z,13.50
2018-04-22T06:01:29.592Z,13.70
2018-04-22T06:03:58.100Z,13.80
2018-04-22T06:06:26.450Z,14.00
2018-04-22T06:08:54.725Z,14.00
2018-04-22T06:11:23.759Z,14.00
2018-04-22T06:13:52.074Z,14.00
2018-04-22T06:16:21.045Z,14.20
2018-04-22T06:18:50.118Z,14.20
2018-04-22T06:21:18.505Z,14.20
2018-04-22T06:23:46.753Z,14.40
2018-04-22T06:26:15.036Z,14.70
2018-04-22T06:28:43.363Z,14.90
2018-04-22T06:31:11.779Z,14.90
2018-04-22T06:33:40.042Z,14.80
2018-04-22T06:36:08.405Z,14.80
2018-04-22T06:38:36.732Z,14.90
2018-04-22T06:41:05.024Z,15.00
2018-04-22T06:43:33.352Z,15.20
2018-04-22T06:46:01.600Z,15.30
2018-04-22T06:48:30.591Z,15.80
2018-04-22T06:50:59.634Z,16.10
2018-04-22T06:53:27.857Z,16.00
2018-04-22T06:55:56.120Z,16.40
2018-04-22T06:58:24.441Z,16.60
2018-04-22T07:00:52.690Z,16.80
2018-04-22T07:03:21.731Z,17.10
2018-04-22T07:05:50.050Z,17.10
2018-04-22T07:10:52.897Z,17.30
2018-04-22T07:13:21.155Z,17.20
2018-04-22T07:15:49.388Z,17.30
2018-04-22T07:18:17.644Z,17.50
2018-04-22T07:20:45.937Z,17.80
2018-04-22T07:23:14.293Z,18.00
2018-04-22T07:25:42.557Z,18.20
2018-04-22T07:28:10.805Z,18.60
2018-04-22T07:30:39.765Z,19.80
2018-04-22T07:33:08.056Z,19.80
2018-04-22T07:35:36.283Z,20.80
2018-04-22T07:38:04.508Z,21.90
2018-04-22T07:40:32.832Z,22.10
2018-04-22T07:43:01.169Z,23.30
2018-04-22T07:45:29.609Z,24.00
2018-04-22T07:47:57.984Z,25.20
2018-04-22T07:50:26.271Z,26.20
2018-04-22T07:52:54.536Z,27.70
2018-04-22T07:55:25.388Z,26.90
2018-04-22T07:57:53.620Z,26.30
2018-04-22T08:00:21.902Z,27.20
2018-04-22T08:02:50.194Z,28.00
2018-04-22T08:05:18.518Z,27.00
2018-04-22T08:07:46.820Z,27.80
2018-04-22T08:10:16.732Z,28.80
2018-04-22T08:12:44.088Z,28.70
2018-04-22T08:15:12.396Z,29.60
2018-04-22T08:17:40.715Z,29.70
2018-04-22T08:20:08.995Z,29.50
2018-04-22T08:22:37.227Z,29.20
2018-04-22T08:25:05.497Z,28.20
2018-04-22T08:27:33.852Z,28.10
2018-04-22T08:30:02.827Z,27.30
2018-04-22T08:32:31.952Z,26.40
2018-04-22T08:35:01.091Z,26.90
2018-04-22T08:37:29.293Z,26.90
2018-04-22T08:39:58.331Z,27.70
2018-04-22T08:42:28.599Z,26.50
2018-04-22T08:44:56.847Z,26.50
2018-04-22T08:47:25.115Z,25.80
2018-04-22T08:49:53.371Z,25.40
2018-04-22T08:52:21.606Z,24.90
2018-04-22T08:54:50.280Z,24.60
2018-04-22T08:57:18.692Z,25.00
2018-04-22T08:59:47.016Z,25.10
2018-04-22T09:02:15.265Z,24.80
2018-04-22T09:04:43.604Z,25.10
2018-04-22T09:07:11.815Z,25.30
2018-04-22T09:09:40.124Z,24.50
2018-04-22T09:12:08.387Z,24.60
2018-04-22T09:14:36.683Z,24.40
2018-04-22T09:17:04.947Z,24.70
2018-04-22T09:19:33.218Z,24.60
2018-04-22T09:22:01.803Z,24.60
2018-04-22T09:24:30.044Z,24.50
2018-04-22T09:26:58.323Z,24.50
2018-04-22T09:29:26.627Z,24.90
2018-04-22T09:31:54.907Z,24.80
2018-04-22T09:34:23.143Z,24.80
2018-04-22T09:36:51.423Z,24.80
2018-04-22T09:39:19.729Z,24.60
2018-04-22T09:41:47.999Z,24.70
2018-04-22T09:44:16.279Z,24.70
2018-04-22T09:46:44.647Z,24.80
2018-04-22T09:49:13.719Z,24.90
2018-04-22T09:51:41.922Z,24.90
2018-04-22T09:54:10.212Z,24.80
2018-04-22T09:56:38.453Z,24.90
2018-04-22T09:59:06.730Z,25.20
2018-04-22T10:01:36.884Z,25.30
2018-04-22T10:04:11.013Z,25.10
2018-04-22T10:06:39.385Z,25.30
2018-04-22T10:09:07.608Z,25.80
2018-04-22T10:11:35.936Z,25.20
2018-04-22T10:14:04.263Z,25.40
2018-04-22T10:16:32.512Z,25.30
2018-04-22T10:19:01.555Z,25.50
2018-04-22T10:21:30.549Z,25.40
2018-04-22T10:23:58.824Z,25.40
2018-04-22T10:26:27.848Z,25.80
2018-04-22T10:28:58.777Z,25.80
2018-04-22T10:31:27.840Z,26.30
2018-04-22T10:33:56.936Z,26.30
2018-04-22T10:36:25.931Z,26.10
2018-04-22T10:38:54.299Z,26.10
2018-04-22T10:41:22.576Z,26.40
2018-04-22T10:43:51.573Z,26.50
2018-04-22T10:46:19.893Z,26.60
2018-04-22T10:48:48.782Z,26.70
2018-04-22T10:51:17.323Z,26.90
2018-04-22T10:53:45.590Z,27.10
2018-04-22T10:56:14.069Z,27.20
2018-04-22T10:58:42.287Z,26.70
2018-04-22T11:01:10.543Z,27.10
2018-04-22T11:03:39.539Z,27.20
2018-04-22T11:06:08.531Z,26.80
2018-04-22T11:08:37.535Z,26.80
2018-04-22T11:11:06.673Z,27.00
2018-04-22T11:13:34.967Z,27.00
2018-04-22T11:16:03.243Z,26.70
2018-04-22T11:18:31.563Z,27.10
2018-04-22T11:21:00.637Z,27.40
2018-04-22T11:23:29.258Z,27.40
2018-04-22T11:25:57.492Z,27.30
2018-04-22T11:28:25.717Z,27.50
2018-04-22T11:30:54.059Z,27.40
2018-04-22T11:33:22.786Z,27.40
2018-04-22T11:35:52.871Z,26.80
2018-04-22T11:38:21.600Z,26.80
2018-04-22T11:40:50.835Z,27.30
2018-04-22T11:43:20.665Z,27.30
2018-04-22T11:45:48.932Z,27.30
2018-04-22T11:48:17.265Z,27.30
2018-04-22T11:50:46.277Z,27.10
2018-04-22T11:53:14.526Z,27.10
2018-04-22T11:55:42.775Z,26.90
2018-04-22T11:58:11.022Z,26.80
2018-04-22T12:00:39.396Z,27.40
2018-04-22T12:03:07.591Z,27.40
2018-04-22T12:05:35.896Z,27.30
2018-04-22T12:08:05.040Z,26.40
2018-04-22T12:10:33.339Z,26.40
2018-04-22T12:13:01.795Z,27.00
2018-04-22T12:15:30.186Z,26.60
2018-04-22T12:17:58.485Z,27.30
2018-04-22T12:20:29.385Z,27.60
2018-04-22T12:22:58.232Z,27.90
2018-04-22T12:25:26.716Z,28.00
2018-04-22T12:27:55.061Z,27.90
2018-04-22T12:30:23.347Z,27.50
2018-04-22T12:32:51.764Z,27.20
2018-04-22T12:35:20.071Z,27.20
2018-04-22T12:37:48.267Z,27.60
2018-04-22T12:40:16.733Z,27.50
2018-04-22T12:42:47.479Z,27.20
2018-04-22T12:45:15.676Z,27.30
2018-04-22T12:47:43.868Z,27.40
2018-04-22T12:50:12.112Z,27.60
2018-04-22T12:52:40.358Z,27.60
2018-04-22T12:55:08.707Z,27.60
2018-04-22T12:57:37.989Z,27.20
2018-04-22T13:00:07.465Z,27.20
2018-04-22T13:02:35.711Z,27.60
2018-04-22T13:05:05.233Z,27.80
2018-04-22T13:07:33.944Z,28.30
2018-04-22T13:10:03.248Z,29.70
2018-04-22T13:12:31.702Z,29.60
2018-04-22T13:15:00.028Z,29.50
2018-04-22T13:17:28.518Z,30.90
2018-04-22T13:19:57.815Z,32.90
2018-04-22T13:22:27.222Z,33.70
2018-04-22T13:24:55.555Z,33.60
2018-04-22T13:27:23.956Z,34.40
2018-04-22T13:29:53.623Z,35.20
2018-04-22T13:32:22.030Z,35.30
2018-04-22T13:34:50.367Z,36.90
2018-04-22T13:37:18.855Z,36.80
2018-04-22T13:39:47.053Z,37.20
2018-04-22T13:42:15.355Z,37.10
2018-04-22T13:44:43.595Z,35.20
2018-04-22T13:47:11.862Z,34.30
2018-04-22T13:49:40.087Z,34.70
2018-04-22T13:52:08.454Z,35.20
2018-04-22T13:54:36.721Z,31.70
2018-04-22T13:57:04.976Z,31.30
2018-04-22T13:59:33.369Z,32.00
2018-04-22T14:02:01.633Z,32.80
2018-04-22T14:04:31.108Z,34.80
2018-04-22T14:07:00.107Z,34.20
2018-04-22T14:09:28.344Z,34.10
2018-04-22T14:11:56.858Z,35.10
2018-04-22T14:14:25.045Z,36.50
2018-04-22T14:16:53.305Z,37.40
2018-04-22T14:19:22.348Z,38.00
2018-04-22T14:21:50.624Z,38.00
2018-04-22T14:24:18.902Z,38.10
2018-04-22T14:26:47.420Z,38.60
2018-04-22T14:29:15.677Z,39.00
2018-04-22T14:31:43.948Z,38.70
2018-04-22T14:34:13.054Z,39.60
2018-04-22T14:36:41.377Z,39.60
2018-04-22T14:39:09.647Z,37.70
2018-04-22T14:41:38.730Z,38.70
2018-04-22T14:44:19.427Z,38.50
2018-04-22T14:46:47.807Z,38.50
2018-04-22T14:49:16.067Z,37.30
2018-04-22T14:51:44.392Z,36.60
2018-04-22T14:54:12.788Z,35.30
2018-04-22T14:56:41.157Z,34.10
2018-04-22T14:59:09.378Z,33.50
2018-04-22T15:01:37.614Z,32.40
2018-04-22T15:04:05.863Z,32.10
2018-04-22T15:06:35.446Z,31.60
2018-04-22T15:09:03.766Z,31.10
2018-04-22T15:11:32.163Z,30.70
2018-04-22T15:14:00.397Z,30.40
2018-04-22T15:16:28.641Z,30.00
2018-04-22T15:18:57.976Z,29.60
2018-04-22T15:21:26.208Z,29.60
2018-04-22T15:23:54.538Z,29.80
2018-04-22T15:26:22.836Z,29.80
2018-04-22T15:28:51.149Z,29.80
2018-04-22T15:31:21.375Z,30.00
2018-04-22T15:33:49.585Z,29.90
2018-04-22T15:36:17.830Z,29.80
2018-04-22T15:38:46.101Z,29.60
2018-04-22T15:41:15.072Z,29.50
2018-04-22T15:43:43.324Z,29.50
2018-04-22T15:46:11.622Z,29.40
2018-04-22T15:48:39.824Z,29.20
2018-04-22T15:51:08.852Z,29.40
2018-04-22T15:53:37.098Z,29.40
2018-04-22T15:56:06.088Z,29.40
2018-04-22T15:58:34.382Z,29.40
2018-04-22T16:01:02.713Z,29.00
2018-04-22T16:03:30.933Z,28.80
2018-04-22T16:05:59.496Z,28.60
2018-04-22T16:08:27.692Z,28.50
2018-04-22T16:10:57.381Z,28.30
2018-04-22T16:13:25.630Z,28.20
2018-04-22T16:15:53.935Z,28.10
2018-04-22T16:18:22.213Z,27.90
2018-04-22T16:20:50.387Z,27.70
2018-04-22T16:23:19.447Z,27.50
2018-04-22T16:25:47.723Z,27.50
2018-04-22T16:28:15.959Z,27.50
2018-04-22T16:30:44.303Z,27.50
2018-04-22T16:33:12.512Z,27.50
2018-04-22T16:35:40.791Z,27.60
2018-04-22T16:38:09.023Z,27.70
2018-04-22T16:40:37.358Z,27.60
2018-04-22T16:43:05.575Z,27.70
2018-04-22T16:45:33.895Z,27.70
2018-04-22T16:48:02.186Z,27.50
2018-04-22T16:50:30.511Z,27.40
2018-04-22T16:52:59.115Z,27.50
2018-04-22T16:55:28.163Z,27.40
2018-04-22T16:57:56.539Z,27.40
2018-04-22T17:00:24.893Z,27.30
2018-04-22T17:02:53.113Z,27.10
2018-04-22T17:05:22.160Z,27.00
2018-04-22T17:07:50.439Z,27.00
2018-04-22T17:10:18.688Z,26.90
2018-04-22T17:12:48.479Z,26.80
2018-04-22T17:15:16.688Z,26.80
2018-04-22T17:17:44.926Z,26.60
2018-04-22T17:20:13.176Z,26.60
2018-04-22T17:22:41.427Z,26.30
2018-04-22T17:25:09.796Z,26.20
2018-04-22T17:27:38.146Z,25.90
2018-04-22T17:30:06.559Z,25.80
2018-04-22T17:32:34.783Z,25.70
2018-04-22T17:35:02.996Z,25.60
2018-04-22T17:37:32.067Z,25.30
2018-04-22T17:40:00.493Z,25.20
2018-04-22T17:42:28.760Z,25.10
2018-04-22T17:44:57.131Z,24.90
2018-04-22T17:47:26.118Z,24.70
2018-04-22T17:49:54.317Z,24.70
2018-04-22T17:52:22.955Z,24.70
2018-04-22T17:54:51.150Z,24.50
2018-04-22T17:57:20.148Z,24.40
2018-04-22T17:59:49.195Z,24.30
2018-04-22T18:02:17.697Z,24.30
2018-04-22T18:04:45.936Z,24.20
2018-04-22T18:07:14.164Z,24.10
2018-04-22T18:09:42.439Z,24.00
2018-04-22T18:12:10.824Z,23.90
2018-04-22T18:14:39.637Z,23.80
2018-04-22T18:17:07.894Z,23.70
2018-04-22T18:19:36.983Z,23.50
2018-04-22T18:22:05.245Z,23.50
2018-04-22T18:24:33.832Z,23.40
2018-04-22T18:27:02.334Z,23.30
2018-04-22T18:29:30.595Z,23.30
2018-04-22T18:31:58.996Z,23.20
2018-04-22T18:34:27.239Z,23.00
2018-04-22T18:36:55.704Z,23.00
2018-04-22T18:39:24.540Z,22.90
2018-04-22T18:41:53.797Z,22.70
2018-04-22T18:44:22.188Z,22.60
2018-04-22T18:46:51.334Z,22.50
2018-04-22T18:49:19.571Z,22.50
2018-04-22T18:51:47.912Z,22.30
2018-04-22T18:54:16.292Z,22.20
2018-04-22T18:56:47.470Z,22.20
2018-04-22T18:59:15.819Z,22.20
2018-04-22T19:01:44.187Z,22.10
2018-04-22T19:04:13.088Z,22.10
2018-04-22T19:06:41.423Z,22.00
2018-04-22T19:09:10.486Z,21.70
2018-04-22T19:11:38.997Z,21.70
2018-04-22T19:14:07.429Z,21.60
2018-04-22T19:16:35.769Z,21.60
2018-04-22T19:19:04.156Z,21.60
2018-04-22T19:21:32.526Z,21.50
2018-04-22T19:24:00.837Z,21.50
2018-04-22T19:26:30.136Z,21.50
2018-04-22T19:28:58.440Z,21.20
2018-04-22T19:31:27.482Z,21.10
2018-04-22T19:33:56.323Z,21.10
2018-04-22T19:36:25.702Z,21.10
2018-04-22T19:38:54.683Z,21.00
2018-04-22T19:41:24.165Z,20.80
2018-04-22T19:43:53.189Z,20.80
2018-04-22T19:46:21.701Z,20.70
2018-04-22T19:48:50.604Z,20.80
2018-04-22T19:51:19.113Z,20.70
2018-04-22T19:53:48.503Z,20.70
2018-04-22T19:56:17.011Z,20.70
2018-04-22T19:58:45.372Z,20.60
2018-04-22T20:01:14.059Z,20.40
2018-04-22T20:03:42.360Z,20.50
2018-04-22T20:06:10.955Z,20.50
2018-04-22T20:08:39.283Z,20.40
2018-04-22T20:11:08.742Z,20.30
2018-04-22T20:13:36.935Z,20.20
2018-04-22T20:16:05.185Z,20.30
2018-04-22T20:18:34.279Z,20.20
2018-04-22T20:21:02.856Z,20.20
2018-04-22T20:23:31.136Z,20.20
2018-04-22T20:26:02.250Z,20.10
2018-04-22T20:28:30.880Z,20.10
2018-04-22T20:30:59.087Z,20.00
2018-04-22T20:33:27.467Z,19.90
2018-04-22T20:35:56.146Z,19.90
2018-04-22T20:38:24.359Z,19.80
2018-04-22T20:40:52.997Z,19.80
2018-04-22T20:43:21.327Z,19.60
2018-04-22T20:45:50.152Z,19.60
2018-04-22T20:48:18.520Z,19.60
2018-04-22T20:50:47.143Z,19.50
2018-04-22T20:53:15.730Z,19.40
2018-04-22T20:55:44.096Z,19.40
2018-04-22T20:58:12.496Z,19.40
2018-04-22T21:00:41.456Z,19.30
2018-04-22T21:03:10.094Z,19.30
2018-04-22T21:05:39.309Z,19.10
2018-04-22T21:08:08.214Z,19.10
2018-04-22T21:10:36.788Z,18.90
2018-04-22T21:13:05.047Z,18.90
2018-04-22T21:15:33.776Z,18.70
2018-04-22T21:18:02.644Z,18.70
2018-04-22T21:20:30.912Z,18.60
2018-04-22T21:22:59.204Z,18.50
2018-04-22T21:25:27.484Z,18.60
2018-04-22T21:27:55.728Z,18.50
2018-04-22T21:30:23.948Z,18.20
2018-04-22T21:32:52.319Z,18.30
2018-04-22T21:35:20.587Z,18.30
2018-04-22T21:37:48.945Z,18.30
2018-04-22T21:40:17.519Z,18.40
2018-04-22T21:42:46.001Z,18.50
2018-04-22T21:45:14.292Z,18.40
2018-04-22T21:47:42.576Z,18.10
2018-04-22T21:50:10.954Z,18.10
2018-04-22T21:52:39.229Z,18.10
2018-04-22T21:55:07.774Z,18.10
2018-04-22T21:57:36.746Z,17.90
2018-04-22T22:00:04.983Z,17.90
2018-04-22T22:02:33.336Z,18.00
2018-04-22T22:05:01.587Z,17.90
2018-04-22T22:07:29.782Z,17.90
2018-04-22T22:09:58.220Z,17.80
2018-04-22T22:12:26.549Z,17.70
2018-04-22T22:14:54.905Z,17.40
2018-04-22T22:17:23.207Z,17.40
2018-04-22T22:19:51.509Z,17.60
2018-04-22T22:22:19.761Z,17.60
2018-04-22T22:24:48.142Z,17.70
2018-04-22T22:27:16.433Z,17.60
2018-04-22T22:29:44.804Z,17.50
2018-04-22T22:32:13.104Z,17.50
2018-04-22T22:34:41.340Z,17.60
2018-04-22T22:37:09.876Z,17.90
2018-04-22T22:39:38.610Z,18.00
2018-04-22T22:42:06.860Z,18.10
2018-04-22T22:44:35.243Z,17.70
2018-04-22T22:47:03.593Z,17.80
2018-04-22T22:49:31.847Z,17.80
2018-04-22T22:52:00.169Z,17.80
2018-04-22T22:54:28.469Z,17.80
2018-04-22T22:56:57.452Z,17.80
2018-04-22T22:59:28.316Z,17.90
2018-04-22T23:01:56.657Z,17.80
2018-04-22T23:04:24.885Z,17.80
2018-04-22T23:06:53.134Z,17.70
2018-04-22T23:09:21.446Z,17.70
2018-04-22T23:11:49.680Z,17.70
2018-04-22T23:14:18.653Z,17.70
2018-04-22T23:16:46.892Z,17.70
2018-04-22T23:19:15.107Z,17.50
2018-04-22T23:21:44.254Z,17.60
2018-04-22T23:24:12.576Z,17.60
2018-04-22T23:26:40.814Z,17.70
2018-04-22T23:29:09.041Z,17.60
2018-04-22T23:31:37.463Z,17.60
2018-04-22T23:34:05.804Z,17.60
2018-04-22T23:36:34.985Z,17.60
2018-04-22T23:39:03.280Z,17.60
2018-04-22T23:41:31.603Z,17.60
2018-04-22T23:43:59.886Z,17.60
2018-04-22T23:46:28.333Z,17.60
2018-04-22T23:48:57.367Z,17.50
2018-04-22T23:51:26.035Z,17.50
2018-04-22T23:53:54.363Z,17.50
2018-04-22T23:56:23.433Z,17.60
2018-04-22T23:58:51.644Z,17.50
